createdAt,value
2019-04-25T08:31:24.341Z,16.50
2019-04-25T08:36:49.526Z,17.20
2019-04-25T09:08:20.998Z,16.80
2019-04-25T09:13:45.750Z,16.90
2019-04-25T09:19:15.458Z,16.50
2019-04-25T09:45:27.096Z,16.20
2019-04-25T09:50:45.386Z,16.90
2019-04-25T09:56:05.462Z,17.40
2019-04-25T10:01:20.530Z,17.50
2019-04-25T10:06:39.323Z,17.40
2019-04-25T10:11:55.887Z,17.60
2019-04-25T10:17:13.578Z,17.90
2019-04-25T10:22:18.971Z,17.90
2019-04-25T10:27:41.627Z,17.50
2019-04-25T10:33:07.433Z,17.30
2019-04-25T10:43:56.980Z,17.10
2019-04-25T10:49:24.466Z,17.00
2019-04-25T11:00:10.115Z,17.10
2019-04-25T11:05:24.373Z,17.60
2019-04-25T11:10:30.101Z,18.20
2019-04-25T11:15:43.215Z,18.50
2019-04-25T11:20:51.255Z,18.90
2019-04-25T11:25:52.667Z,19.30
2019-04-25T11:30:56.953Z,19.40
2019-04-25T11:36:04.571Z,19.50
2019-04-25T11:41:04.816Z,19.40
2019-04-25T11:46:14.894Z,19.30
2019-04-25T11:51:14.764Z,19.20
2019-04-25T11:56:21.443Z,19.80
2019-04-25T12:01:18.343Z,20.30
2019-04-25T12:06:15.062Z,20.70
2019-04-25T12:11:11.742Z,21.30
2019-04-25T12:16:07.663Z,21.50
2019-04-25T12:21:04.134Z,22.00
2019-04-25T12:25:59.271Z,22.00
2019-04-25T12:30:57.806Z,22.30
2019-04-25T12:35:51.949Z,22.50
2019-04-25T12:40:48.582Z,22.40
2019-04-25T12:45:45.640Z,22.40
2019-04-25T12:50:37.938Z,22.50
2019-04-25T12:55:34.987Z,22.70
2019-04-25T13:00:25.851Z,22.70
2019-04-25T13:05:17.754Z,22.90
2019-04-25T13:10:09.438Z,22.80
2019-04-25T13:15:01.570Z,23.10
2019-04-25T13:19:57.125Z,23.10
2019-04-25T13:24:48.748Z,23.10
2019-04-25T13:29:40.835Z,23.30
2019-04-25T13:34:37.498Z,23.10
2019-04-25T13:39:31.237Z,22.80
2019-04-25T13:44:25.286Z,22.40
2019-04-25T13:49:20.340Z,22.10
2019-04-25T13:54:16.266Z,22.00
2019-04-25T13:59:12.036Z,22.00
2019-04-25T14:04:07.013Z,22.00
2019-04-25T14:09:38.028Z,22.00
2019-04-25T14:14:27.959Z,21.90
2019-04-25T14:19:25.984Z,21.80
2019-04-25T14:24:31.007Z,21.60
2019-04-25T14:29:29.581Z,21.50
2019-04-25T14:34:35.456Z,21.40
2019-04-25T14:39:30.428Z,21.20
2019-04-25T14:44:29.511Z,21.10
2019-04-25T14:50:05.111Z,21.00
2019-04-25T14:55:02.168Z,20.70
2019-04-25T15:00:05.313Z,20.60
2019-04-25T15:05:03.477Z,20.50
2019-04-25T15:10:01.317Z,20.40
2019-04-25T15:14:59.718Z,20.40
2019-04-25T15:19:58.875Z,20.40
2019-04-25T15:25:00.775Z,20.40
2019-04-25T15:30:01.895Z,20.40
2019-04-25T15:35:00.515Z,20.40
2019-04-25T15:39:59.570Z,20.40
2019-04-25T15:45:03.323Z,20.20
2019-04-25T15:50:06.957Z,20.10
2019-04-25T15:55:10.387Z,20.10
2019-04-25T16:00:13.402Z,19.70
2019-04-25T16:05:16.433Z,19.50
2019-04-25T16:10:19.766Z,19.20
2019-04-25T16:15:29.500Z,19.20
2019-04-25T16:20:41.352Z,19.10
2019-04-25T16:25:52.174Z,19.00
2019-04-25T16:30:57.419Z,19.00
2019-04-25T16:36:14.296Z,18.90
2019-04-25T16:41:22.580Z,18.80
2019-04-25T16:46:32.097Z,18.60
2019-04-25T16:51:44.158Z,18.50
2019-04-25T16:57:01.532Z,18.50
2019-04-25T17:02:16.693Z,18.30
2019-04-25T17:07:33.876Z,18.20
2019-04-25T17:12:53.194Z,18.10
2019-04-25T17:18:06.547Z,18.00
2019-04-25T17:23:17.036Z,17.80
2019-04-25T17:28:36.920Z,17.70
2019-04-25T17:34:00.059Z,17.60
2019-04-25T17:39:21.506Z,17.60
2019-04-25T17:44:46.438Z,17.50
2019-04-25T17:50:08.374Z,17.40
